createdAt,value
2023-02-27T00:02:25.789Z,8.30
2023-02-27T00:07:26.500Z,8.50
2023-02-27T00:12:27.211Z,8.10
2023-02-27T00:17:27.953Z,8.70
2023-02-27T00:22:28.715Z,10.00
2023-02-27T00:27:29.411Z,10.40
2023-02-27T00:32:30.185Z,10.80
2023-02-27T00:37:30.850Z,9.80
2023-02-27T00:42:31.592Z,7.90
2023-02-27T00:47:32.296Z,7.10
2023-02-27T00:52:33.034Z,6.60
2023-02-27T00:57:33.821Z,7.40
2023-02-27T01:02:34.557Z,7.40
2023-02-27T01:07:35.393Z,6.90
2023-02-27T01:12:36.127Z,6.30
2023-02-27T01:17:45.351Z,7.00
2023-02-27T01:22:37.533Z,9.00
2023-02-27T01:27:38.294Z,7.60
2023-02-27T01:32:39.083Z,7.70
2023-02-27T01:37:39.783Z,7.30
2023-02-27T01:42:40.498Z,6.20
2023-02-27T01:47:41.214Z,8.10
2023-02-27T01:52:42.034Z,8.20
2023-02-27T01:57:42.704Z,7.40
2023-02-27T02:02:43.417Z,8.20
2023-02-27T02:07:44.151Z,7.50
2023-02-27T02:12:44.847Z,6.90
2023-02-27T02:17:45.606Z,10.40
2023-02-27T02:22:46.278Z,7.40
2023-02-27T02:27:47.018Z,7.20
2023-02-27T02:32:47.715Z,9.70
2023-02-27T02:37:48.503Z,6.90
2023-02-27T02:42:49.222Z,7.50
2023-02-27T02:47:49.934Z,6.70
2023-02-27T02:52:50.633Z,6.30
2023-02-27T02:57:51.350Z,6.40
2023-02-27T03:02:52.117Z,6.60
2023-02-27T03:07:52.836Z,7.30
2023-02-27T03:12:53.527Z,6.70
2023-02-27T03:17:54.258Z,7.40
2023-02-27T03:22:54.964Z,7.50
2023-02-27T03:27:55.685Z,7.40
2023-02-27T03:32:56.410Z,7.80
2023-02-27T03:37:57.124Z,7.90
2023-02-27T03:42:57.850Z,7.30
2023-02-27T03:48:05.609Z,7.20
2023-02-27T03:52:59.295Z,7.60
2023-02-27T03:58:00.034Z,9.10
2023-02-27T04:03:00.670Z,8.00
2023-02-27T04:08:01.369Z,8.70
2023-02-27T04:13:02.123Z,7.30
2023-02-27T04:18:02.791Z,8.60
2023-02-27T04:23:03.530Z,6.80
2023-02-27T04:28:04.241Z,8.50
2023-02-27T04:33:04.969Z,10.60
2023-02-27T04:38:05.822Z,7.80
2023-02-27T04:43:06.494Z,9.00
2023-02-27T04:48:07.226Z,9.90
2023-02-27T04:53:07.958Z,8.70
2023-02-27T04:58:08.702Z,7.60
2023-02-27T05:03:09.414Z,7.20
2023-02-27T05:08:10.151Z,6.50
2023-02-27T05:13:10.873Z,9.40
2023-02-27T05:18:11.607Z,8.90
2023-02-27T05:23:12.425Z,7.40
2023-02-27T05:28:13.051Z,7.20
2023-02-27T05:33:13.726Z,9.40
2023-02-27T05:38:14.418Z,9.00
2023-02-27T05:43:15.139Z,8.50
2023-02-27T05:48:17.278Z,10.80
2023-02-27T05:53:16.246Z,9.20
2023-02-27T05:58:16.915Z,9.90
2023-02-27T06:03:17.692Z,9.40
2023-02-27T06:08:18.377Z,11.20
2023-02-27T06:13:19.034Z,9.60
2023-02-27T06:18:20.385Z,9.30
2023-02-27T06:23:20.603Z,11.40
2023-02-27T06:28:21.222Z,11.80
2023-02-27T06:33:21.886Z,9.40
2023-02-27T06:38:22.593Z,13.60
2023-02-27T06:43:23.262Z,11.50
2023-02-27T06:48:23.919Z,10.30
2023-02-27T06:53:24.606Z,13.20
2023-02-27T06:58:25.282Z,10.80
2023-02-27T07:03:25.948Z,11.10
2023-02-27T07:08:26.599Z,13.90
2023-02-27T07:13:27.294Z,15.80
2023-02-27T07:18:27.938Z,9.10
2023-02-27T07:23:28.600Z,12.70
2023-02-27T07:28:29.371Z,11.00
2023-02-27T07:33:29.994Z,14.20
2023-02-27T07:38:30.672Z,13.20
2023-02-27T07:43:31.354Z,16.60
2023-02-27T07:48:32.022Z,15.10
2023-02-27T07:53:32.686Z,17.70
2023-02-27T07:58:33.332Z,20.90
2023-02-27T08:03:34.028Z,19.20
2023-02-27T08:08:34.662Z,13.80
2023-02-27T08:13:59.702Z,13.70
2023-02-27T08:18:36.876Z,14.50
2023-02-27T08:23:36.594Z,12.40
2023-02-27T08:28:37.252Z,26.40
2023-02-27T08:33:38.075Z,16.90
2023-02-27T08:38:38.716Z,14.50
2023-02-27T08:43:39.355Z,11.10
2023-02-27T08:48:40.183Z,11.80
2023-02-27T08:53:40.888Z,13.40
2023-02-27T08:58:41.525Z,11.40
2023-02-27T09:03:42.185Z,13.50
2023-02-27T09:08:43.889Z,12.20
2023-02-27T09:13:43.542Z,17.40
2023-02-27T09:18:44.199Z,18.20
2023-02-27T09:23:44.873Z,15.30
2023-02-27T09:28:45.651Z,12.00
2023-02-27T09:33:46.245Z,13.80
2023-02-27T09:38:46.953Z,11.80
2023-02-27T09:43:47.626Z,14.50
2023-02-27T09:48:48.274Z,12.40
2023-02-27T09:53:48.965Z,11.00
2023-02-27T09:58:49.733Z,11.30
2023-02-27T10:03:50.381Z,15.60
2023-02-27T10:08:58.020Z,12.50
2023-02-27T10:13:51.688Z,10.50
2023-02-27T10:18:52.394Z,17.50
2023-02-27T10:23:53.002Z,8.10
2023-02-27T10:28:53.723Z,7.70
2023-02-27T10:33:54.342Z,11.70
2023-02-27T10:38:55.009Z,9.10
2023-02-27T10:43:55.673Z,9.10
2023-02-27T10:48:56.353Z,10.40
2023-02-27T10:53:57.004Z,8.50
2023-02-27T10:58:57.666Z,9.50
2023-02-27T11:03:58.329Z,8.80
2023-02-27T11:08:59.010Z,8.10
2023-02-27T11:14:01.384Z,7.60
2023-02-27T11:19:00.561Z,7.20
2023-02-27T11:24:01.242Z,7.40
2023-02-27T11:29:01.914Z,7.00
2023-02-27T11:34:02.578Z,8.00
2023-02-27T11:39:03.236Z,6.20
2023-02-27T11:44:03.899Z,6.60
2023-02-27T11:49:04.589Z,5.80
2023-02-27T11:54:05.241Z,7.00
2023-02-27T11:59:05.907Z,8.00
2023-02-27T12:04:06.684Z,7.90
2023-02-27T12:09:07.348Z,6.80
2023-02-27T12:14:07.997Z,9.80
2023-02-27T12:19:08.691Z,11.00
2023-02-27T12:24:09.455Z,6.30
2023-02-27T12:29:10.098Z,7.30
2023-02-27T12:34:10.751Z,5.50
2023-02-27T12:39:11.444Z,6.10
2023-02-27T12:44:12.077Z,5.70
2023-02-27T12:49:12.739Z,3.50
2023-02-27T12:54:13.424Z,3.20
2023-02-27T12:59:14.066Z,4.40
2023-02-27T13:04:14.735Z,5.00
2023-02-27T13:09:15.412Z,5.30
2023-02-27T13:14:16.059Z,4.30
2023-02-27T13:19:16.736Z,7.90
2023-02-27T13:24:17.428Z,5.10
2023-02-27T13:29:18.067Z,6.50
2023-02-27T13:34:18.735Z,6.70
2023-02-27T13:39:19.413Z,7.20
2023-02-27T13:44:20.069Z,7.30
2023-02-27T13:49:28.791Z,4.50
2023-02-27T13:54:22.301Z,3.30
2023-02-27T13:59:21.935Z,4.30
2023-02-27T14:04:22.602Z,3.60
2023-02-27T14:09:23.366Z,5.30
2023-02-27T14:14:24.106Z,4.30
2023-02-27T14:19:24.764Z,4.60
2023-02-27T14:24:25.429Z,6.30
2023-02-27T14:29:26.095Z,5.20
2023-02-27T14:34:26.779Z,4.10
2023-02-27T14:39:27.433Z,6.80
2023-02-27T14:44:28.096Z,6.70
2023-02-27T14:49:28.785Z,4.00
2023-02-27T14:54:29.440Z,4.30
2023-02-27T14:59:30.125Z,3.50
2023-02-27T15:04:30.947Z,4.70
2023-02-27T15:09:31.636Z,5.80
2023-02-27T15:14:32.298Z,6.70
2023-02-27T15:19:32.984Z,6.70
2023-02-27T15:24:48.921Z,7.20
2023-02-27T15:29:35.195Z,6.50
2023-02-27T15:34:34.827Z,6.60
2023-02-27T15:39:35.516Z,5.20
2023-02-27T15:44:36.163Z,5.80
2023-02-27T15:49:36.823Z,6.00
2023-02-27T15:54:37.489Z,6.10
2023-02-27T15:59:38.193Z,4.60
2023-02-27T16:04:38.840Z,6.20
2023-02-27T16:09:39.516Z,6.30
2023-02-27T16:14:40.185Z,8.10
2023-02-27T16:19:40.868Z,7.90
2023-02-27T16:24:41.512Z,5.20
2023-02-27T16:29:42.189Z,7.40
2023-02-27T16:34:45.456Z,6.00
2023-02-27T16:39:43.694Z,5.30
2023-02-27T16:44:44.343Z,5.60
2023-02-27T16:49:45.042Z,7.90
2023-02-27T16:54:45.719Z,8.30
2023-02-27T16:59:46.383Z,7.40
2023-02-27T17:04:47.080Z,9.30
2023-02-27T17:09:47.699Z,9.70
2023-02-27T17:14:48.365Z,10.80
2023-02-27T17:19:49.119Z,10.80
2023-02-27T17:24:49.813Z,8.00
2023-02-27T17:29:50.514Z,15.50
2023-02-27T17:34:51.242Z,12.70
2023-02-27T17:39:51.988Z,11.20
2023-02-27T17:44:52.707Z,10.80
2023-02-27T17:49:53.458Z,11.90
2023-02-27T17:54:54.174Z,12.20
2023-02-27T17:59:54.970Z,10.50
2023-02-27T18:04:55.654Z,9.80
2023-02-27T18:09:56.383Z,12.30
2023-02-27T18:14:57.128Z,11.40
2023-02-27T18:19:57.932Z,12.60
2023-02-27T18:24:58.671Z,14.70
2023-02-27T18:29:59.385Z,15.70
2023-02-27T18:35:00.150Z,14.50
2023-02-27T18:40:00.862Z,17.00
2023-02-27T18:45:01.605Z,11.50
2023-02-27T18:50:02.341Z,10.10
2023-02-27T18:55:03.050Z,10.50
2023-02-27T19:00:03.782Z,10.10
2023-02-27T19:05:04.580Z,8.70
2023-02-27T19:10:05.341Z,9.80
2023-02-27T19:15:06.025Z,11.10
2023-02-27T19:20:06.757Z,10.30
2023-02-27T19:25:07.536Z,11.30
2023-02-27T19:30:08.218Z,12.80
2023-02-27T19:35:08.894Z,10.80
2023-02-27T19:40:09.623Z,14.00
2023-02-27T19:45:10.322Z,13.00
2023-02-27T19:50:11.042Z,11.20
2023-02-27T19:55:11.788Z,13.90
2023-02-27T20:00:12.481Z,11.90
2023-02-27T20:05:13.210Z,11.20
2023-02-27T20:10:20.973Z,10.50
2023-02-27T20:15:14.631Z,10.90
2023-02-27T20:20:15.344Z,13.10
2023-02-27T20:25:16.080Z,14.20
2023-02-27T20:30:16.828Z,14.40
2023-02-27T20:35:17.543Z,16.60
2023-02-27T20:40:18.255Z,16.20
2023-02-27T20:45:18.991Z,14.20
2023-02-27T20:50:19.692Z,10.70
2023-02-27T20:55:20.415Z,10.40
2023-02-27T21:00:21.138Z,10.50
2023-02-27T21:05:21.878Z,11.30
2023-02-27T21:10:22.591Z,12.60
2023-02-27T21:15:23.322Z,12.80
2023-02-27T21:20:24.078Z,15.10
2023-02-27T21:25:24.769Z,12.70
2023-02-27T21:30:25.489Z,13.20
2023-02-27T21:35:26.289Z,11.40
2023-02-27T21:40:26.945Z,13.90
2023-02-27T21:45:27.666Z,9.10
2023-02-27T21:50:29.691Z,10.40
2023-02-27T21:55:28.909Z,12.00
2023-02-27T22:00:29.660Z,9.20
2023-02-27T22:05:30.394Z,10.50
2023-02-27T22:10:31.144Z,10.60
2023-02-27T22:15:31.923Z,12.20
2023-02-27T22:20:32.611Z,11.30
2023-02-27T22:25:33.320Z,11.60
2023-02-27T22:30:34.045Z,14.70
2023-02-27T22:35:34.815Z,14.40
2023-02-27T22:40:35.486Z,12.10
2023-02-27T22:45:36.224Z,13.50
2023-02-27T22:50:36.965Z,13.90
2023-02-27T22:55:37.666Z,12.20
2023-02-27T23:00:38.386Z,11.10
2023-02-27T23:05:39.129Z,13.60
2023-02-27T23:10:39.825Z,11.90
2023-02-27T23:15:40.561Z,10.50
2023-02-27T23:20:41.278Z,13.80
2023-02-27T23:25:42.016Z,11.20
2023-02-27T23:30:42.715Z,15.80
2023-02-27T23:35:43.502Z,11.20
2023-02-27T23:40:44.212Z,11.40
2023-02-27T23:45:44.958Z,11.30
2023-02-27T23:50:45.656Z,11.20
2023-02-27T23:55:46.372Z,13.00
